Pagrindinis puslapis
METAR-TAF:

METAR-TAF

Oro uostai :

Rabato oro uostas

Rabatas, Marokas

platuma: 34-03N, ilguma: 006-46W, Aukštis: 84 m

Dabartinis oras

Ataskaita buvo paskelbta 22 minutes, ne 22:30 UTC
Vėjas 3 kt iš Rytų
Temperatūra 17°C
Drėgmė 88%
Slėgis 1015 hPa
Matomumas: 8000 m
Išsisklaidę debesys ne aukštis 2000 ft
Su prošvaistėmis ne aukštis 20000 ft

METAR: GMME 202230Z 10003KT 8000 SCT020 BKN200 17/15 Q1015 NOSIG

Laikas: 23:52 (22:52 UTC)

Prognozė

Ataskaita buvo paskelbta 5 valandos ir 52 minutes, ne 17:00 UTC
Prognozė galioja nuo 20 metu 18 UTC su 21 metu 24 UTC
Vėjas 8 kt iš Šiaurės Vakarų
Matomumas: 8000 m
Išsisklaidę debesys ne aukštis 2000 ft
Išsisklaidę debesys ne aukštis 6000 ft
Su prošvaistėmis ne aukštis 20000 ft
Laikinai
nuo 21 metu 04 UTC su 21 metu 10 UTC
Vėjas 2 kt nuo kintamojo kryptimis
Matomumas: 3000 m
Su prošvaistėmis ne aukštis 1000 ft
Su prošvaistėmis ne aukštis 1500 ft
rūkana

TAF: GMME 201700Z 2018/2124 32008KT 8000 SCT020 SCT060 BKN200 TEMPO 2104/2110 VRB02KT 3000 BR BKN010 BKN015

Orai ataskaitas ir orų prognozės (METAR, TAF).

turimą stotys yra geltonos ir raudonos taškus žemėlapyje.

Perkelti pele per norėdami pamatyti stoties vardą.

Tada spustelėkite, norėdami matyti oro stebėjimo ir prognozės.

Norėdami pakeisti žemėlapį: spustelėkite ant žalios mygtukų su juodo kryžiaus žemyn,; žalią mygtuką su brūkšneliu, jei norite nutolinti; arba žalių rodyklių gretimoms žemėlapius.


METAR-TAF: